createdAt,value
2022-11-14T00:02:45.477Z,25.87
2022-11-14T00:05:32.370Z,25.30
2022-11-14T00:08:21.467Z,23.97
2022-11-14T00:11:09.504Z,24.83
2022-11-14T00:13:56.266Z,24.87
2022-11-14T00:16:43.056Z,24.17
2022-11-14T00:19:31.585Z,23.80
2022-11-14T00:22:18.266Z,23.93
2022-11-14T00:25:06.336Z,24.07
2022-11-14T00:27:58.703Z,24.47
2022-11-14T00:30:48.917Z,23.93
2022-11-14T00:33:35.946Z,23.30
2022-11-14T00:36:24.362Z,24.63
2022-11-14T00:39:13.663Z,24.23
2022-11-14T00:42:00.550Z,22.93
2022-11-14T00:44:48.018Z,24.40
2022-11-14T00:47:34.980Z,21.70
2022-11-14T00:50:21.887Z,23.67
2022-11-14T00:53:10.200Z,24.63
2022-11-14T00:55:56.938Z,24.13
2022-11-14T00:58:43.818Z,23.97
2022-11-14T01:01:30.926Z,23.90
2022-11-14T01:04:18.048Z,23.20
2022-11-14T01:07:04.747Z,24.07
2022-11-14T01:09:52.865Z,23.37
2022-11-14T01:12:39.636Z,22.30
2022-11-14T01:15:26.500Z,22.97
2022-11-14T01:18:15.748Z,22.13
2022-11-14T01:21:06.780Z,22.93
2022-11-14T01:23:53.738Z,22.60
2022-11-14T01:26:42.162Z,22.43
2022-11-14T01:29:29.591Z,21.70
2022-11-14T01:32:16.755Z,21.70
2022-11-14T01:35:03.869Z,23.30
2022-11-14T01:37:50.442Z,21.63
2022-11-14T01:40:43.118Z,22.07
2022-11-14T01:43:33.635Z,21.73
2022-11-14T01:46:24.542Z,21.83
2022-11-14T01:49:17.531Z,22.33
2022-11-14T01:52:07.176Z,20.90
2022-11-14T01:54:56.335Z,21.50
2022-11-14T01:57:47.309Z,21.10
2022-11-14T02:00:35.823Z,19.23
2022-11-14T02:03:23.002Z,21.47
2022-11-14T02:06:12.878Z,21.83
2022-11-14T02:09:03.749Z,21.20
2022-11-14T02:11:53.254Z,19.83
2022-11-14T02:14:41.166Z,19.90
2022-11-14T02:17:30.788Z,20.20
2022-11-14T02:20:24.081Z,20.67
2022-11-14T02:23:12.364Z,20.93
2022-11-14T02:25:59.723Z,21.40
2022-11-14T02:28:47.011Z,22.07
2022-11-14T02:31:34.640Z,23.93
2022-11-14T02:34:21.666Z,25.03
2022-11-14T02:37:09.930Z,25.03
2022-11-14T02:39:57.068Z,25.70
2022-11-14T02:42:44.004Z,24.13
2022-11-14T02:45:30.995Z,23.00
2022-11-14T02:48:18.039Z,21.97
2022-11-14T02:51:04.986Z,23.33
2022-11-14T02:53:53.187Z,23.43
2022-11-14T02:56:40.341Z,24.17
2022-11-14T02:59:27.943Z,24.77
2022-11-14T03:02:14.893Z,25.93
2022-11-14T03:05:01.515Z,26.00
2022-11-14T03:07:48.744Z,26.87
2022-11-14T03:10:36.946Z,26.53
2022-11-14T03:13:24.038Z,24.60
2022-11-14T03:16:15.792Z,23.93
2022-11-14T03:19:02.485Z,24.70
2022-11-14T03:21:49.612Z,26.13
2022-11-14T03:24:36.469Z,26.33
2022-11-14T03:27:24.694Z,24.77
2022-11-14T03:30:12.748Z,25.60
2022-11-14T03:33:01.394Z,27.00
2022-11-14T03:35:49.935Z,24.97
2022-11-14T03:38:36.857Z,25.43
2022-11-14T03:41:23.650Z,25.53
2022-11-14T03:44:12.288Z,25.57
2022-11-14T03:46:59.040Z,26.87
2022-11-14T03:49:46.055Z,25.57
2022-11-14T03:52:32.785Z,25.93
2022-11-14T03:55:19.766Z,27.47
2022-11-14T03:58:06.869Z,27.03
2022-11-14T04:01:20.589Z,26.10
2022-11-14T04:04:07.340Z,24.37
2022-11-14T04:06:54.456Z,24.97
2022-11-14T04:09:41.988Z,24.63
2022-11-14T04:12:28.937Z,24.57
2022-11-14T04:15:16.069Z,25.23
2022-11-14T04:18:04.601Z,26.07
2022-11-14T04:20:51.568Z,25.77
2022-11-14T04:23:38.519Z,26.23
2022-11-14T04:26:25.587Z,24.50
2022-11-14T04:29:13.289Z,23.60
2022-11-14T04:32:00.232Z,24.00
2022-11-14T04:34:49.273Z,23.97
2022-11-14T04:37:38.628Z,24.10
2022-11-14T05:29:19.296Z,22.13
2022-11-14T05:32:06.473Z,21.37
2022-11-14T05:34:53.494Z,20.20
2022-11-14T05:37:40.092Z,20.60
2022-11-14T05:40:28.162Z,19.03
2022-11-14T05:43:16.323Z,20.17
2022-11-14T05:46:06.758Z,19.07
2022-11-14T05:48:53.577Z,18.30
2022-11-14T05:51:40.931Z,19.03
2022-11-14T05:54:28.204Z,17.97
2022-11-14T05:57:14.926Z,19.67
2022-11-14T06:00:02.248Z,18.97
2022-11-14T06:02:54.184Z,17.73
2022-11-14T06:05:46.515Z,18.47
2022-11-14T06:08:33.941Z,19.27
2022-11-14T06:11:22.072Z,20.33
2022-11-14T06:14:10.957Z,20.47
2022-11-14T06:16:58.360Z,20.07
2022-11-14T06:19:46.492Z,19.87
2022-11-14T06:22:35.171Z,21.10
2022-11-14T06:25:21.867Z,20.47
2022-11-14T06:28:09.348Z,20.97
2022-11-14T06:30:59.801Z,20.83
2022-11-14T06:33:47.320Z,21.03
2022-11-14T06:36:35.844Z,20.50
2022-11-14T06:39:25.101Z,20.60
2022-11-14T06:42:12.033Z,22.63
2022-11-14T06:44:59.092Z,22.07
2022-11-14T06:47:46.720Z,20.90
2022-11-14T06:50:33.780Z,21.27
2022-11-14T06:53:22.649Z,20.63
2022-11-14T06:56:11.518Z,19.30
2022-11-14T06:58:58.214Z,20.03
2022-11-14T07:02:17.804Z,18.53
2022-11-14T07:05:08.853Z,18.93
2022-11-14T07:07:55.688Z,18.13
2022-11-14T07:10:44.788Z,18.60
2022-11-14T07:13:32.355Z,17.80
2022-11-14T07:16:19.428Z,19.10
2022-11-14T07:19:09.083Z,18.13
2022-11-14T07:21:56.136Z,17.40
2022-11-14T07:24:42.856Z,17.37
2022-11-14T07:27:31.202Z,17.80
2022-11-14T07:30:18.175Z,16.17
2022-11-14T07:33:05.137Z,17.07
2022-11-14T07:35:52.152Z,16.17
2022-11-14T07:38:39.659Z,15.73
2022-11-14T07:41:26.747Z,15.97
2022-11-14T07:44:15.043Z,15.43
2022-11-14T07:47:01.770Z,15.10
2022-11-14T07:49:48.812Z,15.53
2022-11-14T07:52:35.835Z,15.50
2022-11-14T07:55:23.236Z,14.80
2022-11-14T07:58:10.767Z,16.20
2022-11-14T08:01:02.004Z,15.70
2022-11-14T08:03:51.831Z,16.30
2022-11-14T08:06:40.008Z,16.03
2022-11-14T08:09:26.925Z,16.20
2022-11-14T08:12:14.081Z,16.37
2022-11-14T08:15:02.821Z,15.87
2022-11-14T08:17:51.158Z,14.97
2022-11-14T08:20:38.067Z,15.17
2022-11-14T08:23:25.158Z,14.70
2022-11-14T08:26:12.860Z,15.00
2022-11-14T08:28:59.600Z,13.83
2022-11-14T08:31:47.537Z,14.20
2022-11-14T08:34:36.819Z,14.10
2022-11-14T08:37:23.700Z,13.73
2022-11-14T08:40:11.768Z,13.50
2022-11-14T08:43:02.362Z,13.90
2022-11-14T08:45:49.319Z,13.33
2022-11-14T08:48:36.337Z,12.90
2022-11-14T08:51:24.513Z,13.13
2022-11-14T08:54:11.762Z,12.40
2022-11-14T08:56:58.540Z,12.40
2022-11-14T08:59:45.489Z,12.50
2022-11-14T09:02:32.442Z,12.17
2022-11-14T09:05:19.204Z,13.00
2022-11-14T09:08:07.722Z,11.90
2022-11-14T09:10:54.625Z,11.97
2022-11-14T09:13:41.596Z,12.17
2022-11-14T09:16:28.739Z,12.70
2022-11-14T09:19:15.552Z,12.03
2022-11-14T09:22:03.091Z,12.27
2022-11-14T09:24:52.106Z,12.47
2022-11-14T09:27:38.817Z,12.20
2022-11-14T09:30:25.817Z,12.13
2022-11-14T09:33:12.907Z,11.83
2022-11-14T09:36:00.282Z,11.57
2022-11-14T09:38:47.897Z,11.17
2022-11-14T09:41:49.527Z,10.80
2022-11-14T09:44:51.182Z,11.50
2022-11-14T09:47:43.920Z,10.93
2022-11-14T09:50:35.770Z,11.37
2022-11-14T09:53:31.429Z,11.17
2022-11-14T09:56:23.794Z,10.80
2022-11-14T09:59:13.295Z,10.33
2022-11-14T10:02:07.124Z,10.27
2022-11-14T10:05:02.843Z,10.33
2022-11-14T10:08:33.281Z,10.53
2022-11-14T10:11:25.047Z,9.97
2022-11-14T10:14:51.413Z,10.17
2022-11-14T10:17:52.268Z,9.83
2022-11-14T10:20:45.562Z,9.33
2022-11-14T10:23:44.409Z,9.40
2022-11-14T10:26:33.300Z,8.73
2022-11-14T10:29:49.230Z,8.63
2022-11-14T10:32:53.663Z,8.17
2022-11-14T10:35:44.359Z,8.00
2022-11-14T10:38:35.214Z,7.97
2022-11-14T10:41:55.063Z,8.47
2022-11-14T10:44:41.796Z,8.10
2022-11-14T10:47:38.410Z,8.68
2022-11-14T10:50:29.776Z,7.20
2022-11-14T10:53:22.456Z,6.55
2022-11-14T10:56:12.600Z,6.85
2022-11-14T10:58:59.651Z,6.40
2022-11-14T11:01:54.231Z,6.30
2022-11-14T11:04:43.640Z,6.07
2022-11-14T11:07:48.238Z,6.38
2022-11-14T11:10:56.290Z,7.13
2022-11-14T11:13:53.455Z,7.00
2022-11-14T11:16:41.168Z,7.82
2022-11-14T11:19:30.899Z,7.47
2022-11-14T11:22:31.778Z,7.53
2022-11-14T11:25:30.450Z,7.25
2022-11-14T11:28:19.549Z,6.90
2022-11-14T11:31:07.995Z,6.97
2022-11-14T11:33:55.238Z,5.72
2022-11-14T11:36:44.930Z,5.75
2022-11-14T11:39:38.396Z,5.32
2022-11-14T11:42:58.851Z,5.50
2022-11-14T11:45:39.276Z,4.88
2022-11-14T11:48:32.929Z,5.30
2022-11-14T11:51:24.831Z,5.53
2022-11-14T11:54:16.403Z,5.15
2022-11-14T11:57:13.991Z,5.00
2022-11-14T12:00:08.574Z,5.40
2022-11-14T12:02:56.322Z,4.90
2022-11-14T12:05:51.223Z,5.38
2022-11-14T12:08:50.925Z,5.43
2022-11-14T12:11:40.577Z,5.40
2022-11-14T12:14:51.735Z,5.45
2022-11-14T12:18:16.024Z,5.50
2022-11-14T12:21:13.456Z,4.95
2022-11-14T12:24:27.014Z,5.80
2022-11-14T12:27:24.503Z,5.20
2022-11-14T12:30:16.077Z,5.20
2022-11-14T12:33:09.243Z,5.10
2022-11-14T12:35:59.446Z,5.15
2022-11-14T12:38:49.557Z,5.30
2022-11-14T12:41:39.004Z,5.55
2022-11-14T12:44:40.498Z,5.40
2022-11-14T12:47:29.657Z,5.28
2022-11-14T12:50:31.352Z,5.60
2022-11-14T12:53:43.776Z,5.07
2022-11-14T12:56:55.064Z,5.38
2022-11-14T12:59:55.473Z,5.13
2022-11-14T13:03:19.466Z,5.22
2022-11-14T13:06:10.212Z,5.47
2022-11-14T13:09:23.950Z,5.32
2022-11-14T13:12:50.970Z,5.22
2022-11-14T13:16:07.180Z,5.38
2022-11-14T13:19:18.005Z,4.63
2022-11-14T13:22:40.883Z,4.50
2022-11-14T13:25:28.545Z,4.85
2022-11-14T13:28:48.500Z,4.65
2022-11-14T13:31:47.283Z,4.80
2022-11-14T13:34:51.325Z,4.50
2022-11-14T13:38:02.600Z,4.03
2022-11-14T13:41:00.712Z,4.13
2022-11-14T13:43:58.399Z,4.38
2022-11-14T13:47:08.621Z,4.13
2022-11-14T13:50:05.111Z,4.00
2022-11-14T13:52:52.652Z,3.53
2022-11-14T13:55:57.188Z,4.13
2022-11-14T13:59:06.572Z,3.67
2022-11-14T14:02:16.818Z,3.10
2022-11-14T14:05:14.096Z,2.90
2022-11-14T14:08:23.104Z,2.85
2022-11-14T14:11:40.143Z,2.55
2022-11-14T14:14:41.652Z,2.55
2022-11-14T14:17:36.796Z,2.40
2022-11-14T14:20:37.083Z,2.45
2022-11-14T14:23:35.128Z,2.60
2022-11-14T14:26:26.569Z,2.60
2022-11-14T14:29:25.676Z,3.03
2022-11-14T14:32:14.476Z,2.90
2022-11-14T14:35:01.594Z,2.20
2022-11-14T14:37:53.559Z,2.90
2022-11-14T14:40:46.709Z,2.10
2022-11-14T14:43:35.631Z,2.15
2022-11-14T14:46:33.153Z,2.00
2022-11-14T14:49:23.556Z,2.10
2022-11-14T14:52:21.924Z,2.00
2022-11-14T14:55:24.746Z,2.20
2022-11-14T14:58:21.198Z,2.20
2022-11-14T15:01:14.236Z,2.10
2022-11-14T15:04:06.259Z,2.03
2022-11-14T15:06:55.979Z,2.00
2022-11-14T15:09:53.368Z,2.33
2022-11-14T15:12:42.329Z,2.40
2022-11-14T15:15:30.271Z,2.07
2022-11-14T15:18:25.485Z,2.17
2022-11-14T15:21:17.371Z,1.97
2022-11-14T15:24:13.981Z,2.10
2022-11-14T15:27:05.425Z,2.30
2022-11-14T15:29:57.946Z,1.93
2022-11-14T15:32:51.019Z,2.43
2022-11-14T15:35:40.141Z,2.70
2022-11-14T15:38:44.305Z,2.47
2022-11-14T15:41:32.178Z,2.20
2022-11-14T15:44:32.822Z,2.20
2022-11-14T15:47:23.696Z,3.20
2022-11-14T15:50:26.513Z,3.63
2022-11-14T15:53:24.563Z,2.97
2022-11-14T15:56:13.991Z,2.60
2022-11-14T15:59:01.027Z,2.40
2022-11-14T16:01:51.437Z,2.80
2022-11-14T16:04:46.018Z,2.73
2022-11-14T16:07:34.400Z,2.50
2022-11-14T16:10:22.948Z,2.80
2022-11-14T16:13:11.012Z,2.63
2022-11-14T16:15:58.059Z,2.50
2022-11-14T16:18:44.901Z,2.60
2022-11-14T16:21:33.961Z,2.60
2022-11-14T16:24:23.165Z,2.60
2022-11-14T16:27:09.907Z,2.77
2022-11-14T16:29:56.767Z,2.40
2022-11-14T16:32:46.283Z,2.50
2022-11-14T16:35:33.060Z,3.00
2022-11-14T16:38:21.557Z,2.87
2022-11-14T16:41:09.001Z,2.83
2022-11-14T16:43:57.029Z,3.00
2022-11-14T16:46:44.429Z,3.80
2022-11-14T16:49:31.356Z,3.03
2022-11-14T16:52:19.215Z,3.00
2022-11-14T16:55:08.190Z,3.03
2022-11-14T16:57:55.123Z,3.00
2022-11-14T17:00:44.000Z,3.17
2022-11-14T17:03:33.388Z,2.97
2022-11-14T17:06:20.665Z,3.23
2022-11-14T17:09:07.718Z,3.00
2022-11-14T17:11:55.938Z,3.27
2022-11-14T17:14:42.596Z,3.00
2022-11-14T17:17:29.600Z,3.17
2022-11-14T17:20:17.453Z,3.47
2022-11-14T17:23:10.181Z,3.30
2022-11-14T17:26:02.828Z,3.47
2022-11-14T17:28:51.008Z,3.60
2022-11-14T17:31:40.235Z,3.77
2022-11-14T17:34:29.044Z,3.97
2022-11-14T17:37:16.740Z,3.80
2022-11-14T17:40:03.721Z,3.63
2022-11-14T17:42:52.304Z,3.43
2022-11-14T17:45:42.793Z,3.70
2022-11-14T17:48:30.113Z,3.50
2022-11-14T17:51:18.298Z,3.53
2022-11-14T17:54:05.256Z,3.47
2022-11-14T17:56:54.887Z,3.47
2022-11-14T17:59:42.355Z,3.70
2022-11-14T18:02:30.591Z,3.50
2022-11-14T18:05:17.499Z,3.87
2022-11-14T18:08:04.872Z,3.87
2022-11-14T18:10:53.281Z,3.60
2022-11-14T18:13:40.479Z,3.90
2022-11-14T18:16:44.436Z,3.80
2022-11-14T18:19:36.889Z,4.30
2022-11-14T18:22:23.604Z,4.10
2022-11-14T18:25:11.626Z,4.40
2022-11-14T18:27:58.607Z,3.97
2022-11-14T18:30:55.672Z,4.20
2022-11-14T18:33:42.973Z,4.17
2022-11-14T18:36:31.123Z,4.50
2022-11-14T18:39:18.115Z,4.80
2022-11-14T18:42:05.243Z,4.80
2022-11-14T18:44:57.876Z,4.93
2022-11-14T18:47:44.732Z,4.77
2022-11-14T18:51:02.237Z,4.97
2022-11-14T18:53:51.292Z,5.30
2022-11-14T18:56:38.018Z,5.57
2022-11-14T18:59:24.884Z,5.40
2022-11-14T19:02:12.340Z,5.73
2022-11-14T19:05:00.124Z,5.50
2022-11-14T19:07:47.033Z,5.50
2022-11-14T19:10:35.453Z,5.30
2022-11-14T19:13:25.343Z,5.33
2022-11-14T19:16:12.444Z,5.90
2022-11-14T19:19:24.537Z,6.10
2022-11-14T19:22:11.758Z,6.57
2022-11-14T19:24:59.056Z,7.07
2022-11-14T19:27:52.738Z,6.50
2022-11-14T19:30:39.801Z,6.00
2022-11-14T19:33:53.587Z,6.60
2022-11-14T19:39:52.347Z,6.60
2022-11-14T19:42:39.501Z,6.73
2022-11-14T19:45:28.505Z,7.13
2022-11-14T19:48:15.289Z,6.63
2022-11-14T19:51:03.461Z,7.20
2022-11-14T19:53:50.576Z,7.80
2022-11-14T19:56:37.402Z,7.03
2022-11-14T19:59:27.836Z,7.47
2022-11-14T20:02:16.925Z,7.33
2022-11-14T20:05:03.716Z,6.93
2022-11-14T20:07:50.782Z,7.20
2022-11-14T20:10:47.608Z,7.13
2022-11-14T20:13:36.297Z,7.20
2022-11-14T20:16:25.861Z,7.43
2022-11-14T20:19:14.717Z,7.63
2022-11-14T20:22:01.652Z,7.80
2022-11-14T20:24:48.618Z,8.10
2022-11-14T20:27:35.364Z,7.53
2022-11-14T20:30:22.501Z,8.67
2022-11-14T20:33:09.845Z,8.97
2022-11-14T20:36:03.401Z,8.03
2022-11-14T20:38:50.755Z,8.53
2022-11-14T20:41:38.342Z,8.83
2022-11-14T20:44:25.200Z,8.73
2022-11-14T20:47:11.843Z,9.40
2022-11-14T20:49:58.859Z,10.00
2022-11-14T20:52:47.927Z,8.90
2022-11-14T20:55:35.302Z,9.77
2022-11-14T20:58:22.487Z,8.43
2022-11-14T21:01:09.861Z,8.17
2022-11-14T21:03:56.512Z,8.33
2022-11-14T21:06:43.260Z,7.93
2022-11-14T21:09:31.738Z,8.20
2022-11-14T21:12:18.382Z,7.73
2022-11-14T21:15:05.547Z,7.37
2022-11-14T21:17:52.564Z,7.60
2022-11-14T21:20:39.579Z,7.10
2022-11-14T21:23:26.569Z,7.67
2022-11-14T21:26:17.096Z,7.40
2022-11-14T21:29:06.643Z,7.57
2022-11-14T21:31:54.548Z,8.00
2022-11-14T21:34:41.154Z,7.77
2022-11-14T21:37:27.970Z,8.37
2022-11-14T21:40:14.984Z,9.40
2022-11-14T21:43:52.694Z,9.03
2022-11-14T21:46:41.067Z,8.60
2022-11-14T21:49:27.976Z,8.43
2022-11-14T21:52:15.003Z,9.07
2022-11-14T21:55:01.967Z,9.40
2022-11-14T21:57:48.779Z,8.63
2022-11-14T22:00:35.767Z,8.33
2022-11-14T22:03:41.409Z,8.97
2022-11-14T22:06:29.123Z,8.40
2022-11-14T22:09:16.111Z,8.60
2022-11-14T22:12:03.239Z,8.53
2022-11-14T22:14:50.307Z,8.17
2022-11-14T22:17:37.121Z,8.83
2022-11-14T22:20:25.530Z,8.10
2022-11-14T22:23:12.550Z,7.53
2022-11-14T22:26:01.128Z,8.10
2022-11-14T22:28:48.875Z,8.10
2022-11-14T22:31:35.648Z,8.30
2022-11-14T22:34:23.180Z,8.17
2022-11-14T22:37:11.657Z,8.43
2022-11-14T22:39:58.647Z,7.60
2022-11-14T22:42:45.634Z,8.20
2022-11-14T22:45:32.516Z,7.40
2022-11-14T22:48:19.484Z,8.13
2022-11-14T22:51:08.459Z,7.90
2022-11-14T22:53:58.568Z,7.63
2022-11-14T22:56:45.539Z,7.37
2022-11-14T22:59:32.459Z,7.70
2022-11-14T23:02:19.503Z,7.80
2022-11-14T23:05:07.090Z,7.60
2022-11-14T23:07:54.352Z,7.53
2022-11-14T23:10:42.391Z,7.10
2022-11-14T23:13:29.695Z,7.27
2022-11-14T23:16:18.517Z,7.07
2022-11-14T23:19:05.604Z,7.00
2022-11-14T23:21:54.642Z,7.73
2022-11-14T23:24:41.533Z,7.23
2022-11-14T23:27:29.810Z,7.43
2022-11-14T23:30:17.274Z,7.37
2022-11-14T23:33:04.006Z,7.03
2022-11-14T23:35:50.975Z,7.00
2022-11-14T23:38:37.927Z,6.50
2022-11-14T23:41:26.859Z,6.73
2022-11-14T23:44:15.027Z,6.40
2022-11-14T23:47:01.833Z,6.67
2022-11-14T23:49:48.732Z,6.70
2022-11-14T23:52:36.135Z,6.27
2022-11-14T23:55:23.016Z,6.87
2022-11-14T23:58:09.912Z,6.53
